createdAt,value
2023-04-19T00:00:21.262Z,66.79
2023-04-19T00:01:21.198Z,66.89
2023-04-19T00:02:21.316Z,66.79
2023-04-19T00:03:21.293Z,66.68
2023-04-19T00:04:21.672Z,66.47
2023-04-19T00:05:21.215Z,66.47
2023-04-19T00:06:21.154Z,66.27
2023-04-19T00:07:21.141Z,66.07
2023-04-19T00:08:21.135Z,65.86
2023-04-19T00:09:21.169Z,65.76
2023-04-19T00:10:21.118Z,65.76
2023-04-19T00:11:21.096Z,65.86
2023-04-19T00:12:21.078Z,65.76
2023-04-19T00:13:21.064Z,65.35
2023-04-19T00:14:21.057Z,65.21
2023-04-19T00:15:21.051Z,65.21
2023-04-19T00:16:21.041Z,65.21
2023-04-19T00:17:21.027Z,65.21
2023-04-19T00:18:21.043Z,65.11
2023-04-19T00:19:21.007Z,65.24
2023-04-19T00:20:21.004Z,64.94
2023-04-19T00:21:20.974Z,64.59
2023-04-19T00:22:20.973Z,64.70
2023-04-19T00:23:20.970Z,64.70
2023-04-19T00:24:20.947Z,64.59
2023-04-19T00:25:20.932Z,64.29
2023-04-19T00:26:20.957Z,64.19
2023-04-19T00:27:20.913Z,64.08
2023-04-19T00:28:20.899Z,64.01
2023-04-19T00:29:20.892Z,64.01
2023-04-19T00:30:20.929Z,63.90
2023-04-19T00:31:20.901Z,63.60
2023-04-19T00:32:20.860Z,63.39
2023-04-19T00:33:20.836Z,63.29
2023-04-19T00:34:20.851Z,63.16
2023-04-19T00:35:20.835Z,63.16
2023-04-19T00:36:20.857Z,62.88
2023-04-19T00:37:20.820Z,63.19
2023-04-19T00:38:20.789Z,63.29
2023-04-19T00:39:20.783Z,63.39
2023-04-19T00:40:20.773Z,63.73
2023-04-19T00:41:20.759Z,63.83
2023-04-19T00:42:20.745Z,63.53
2023-04-19T00:43:20.733Z,63.42
2023-04-19T00:44:20.746Z,63.32
2023-04-19T00:45:20.704Z,63.12
2023-04-19T00:46:20.755Z,62.88
2023-04-19T00:47:20.678Z,62.78
2023-04-19T00:48:20.715Z,62.78
2023-04-19T00:49:20.670Z,62.78
2023-04-19T00:50:20.676Z,62.88
2023-04-19T00:51:20.639Z,62.98
2023-04-19T00:52:20.632Z,62.78
2023-04-19T00:53:20.612Z,62.70
2023-04-19T00:54:20.617Z,62.67
2023-04-19T00:55:20.602Z,62.91
2023-04-19T00:56:20.593Z,63.01
2023-04-19T00:57:20.579Z,63.12
2023-04-19T00:58:20.555Z,63.01
2023-04-19T00:59:20.548Z,63.01
2023-04-19T01:00:20.549Z,62.81
2023-04-19T01:01:20.581Z,62.81
2023-04-19T01:02:20.587Z,62.81
2023-04-19T01:03:20.710Z,62.81
2023-04-19T01:04:20.822Z,63.01
2023-04-19T01:05:20.501Z,63.22
2023-04-19T01:06:20.501Z,63.01
2023-04-19T01:07:20.481Z,63.01
2023-04-19T01:08:20.439Z,63.12
2023-04-19T01:09:20.447Z,63.01
2023-04-19T01:10:20.421Z,62.91
2023-04-19T01:11:20.415Z,63.01
2023-04-19T01:12:20.406Z,62.91
2023-04-19T01:13:20.396Z,62.70
2023-04-19T01:14:20.381Z,62.70
2023-04-19T01:15:20.374Z,62.81
2023-04-19T01:16:20.511Z,62.70
2023-04-19T01:17:20.365Z,63.04
2023-04-19T01:18:20.336Z,63.04
2023-04-19T01:19:20.318Z,63.04
2023-04-19T01:20:20.327Z,63.04
2023-04-19T01:21:20.305Z,62.94
2023-04-19T01:22:20.321Z,63.04
2023-04-19T01:23:20.270Z,63.14
2023-04-19T01:24:20.269Z,63.14
2023-04-19T01:25:20.254Z,63.25
2023-04-19T01:26:20.243Z,63.25
2023-04-19T01:27:20.284Z,63.25
2023-04-19T01:28:20.212Z,63.14
2023-04-19T01:29:20.202Z,63.04
2023-04-19T01:30:20.202Z,63.14
2023-04-19T01:31:20.214Z,63.25
2023-04-19T01:32:20.207Z,63.25
2023-04-19T01:33:20.166Z,63.38
2023-04-19T01:34:20.154Z,63.59
2023-04-19T01:35:20.140Z,63.69
2023-04-19T01:36:20.131Z,63.69
2023-04-19T01:37:20.124Z,63.79
2023-04-19T01:38:20.127Z,63.79
2023-04-19T01:39:20.106Z,63.79
2023-04-19T01:40:20.075Z,64.00
2023-04-19T01:41:20.070Z,64.00
2023-04-19T01:42:20.063Z,64.00
2023-04-19T01:43:20.047Z,64.00
2023-04-19T01:44:20.045Z,64.13
2023-04-19T01:45:20.028Z,64.20
2023-04-19T01:46:20.016Z,64.13
2023-04-19T01:47:19.992Z,64.33
2023-04-19T01:48:19.990Z,64.44
2023-04-19T01:49:19.972Z,64.54
2023-04-19T01:50:19.969Z,64.64
2023-04-19T01:51:19.952Z,64.54
2023-04-19T01:52:19.940Z,64.44
2023-04-19T01:53:19.924Z,64.78
2023-04-19T01:54:19.942Z,65.09
2023-04-19T01:55:19.920Z,65.09
2023-04-19T01:56:19.894Z,65.09
2023-04-19T01:57:19.901Z,65.39
2023-04-19T01:58:19.871Z,65.19
2023-04-19T01:59:19.853Z,65.42
2023-04-19T02:00:19.848Z,65.53
2023-04-19T02:01:20.022Z,65.42
2023-04-19T02:02:19.875Z,65.42
2023-04-19T02:03:20.087Z,65.19
2023-04-19T02:04:19.833Z,65.09
2023-04-19T02:05:19.797Z,64.99
2023-04-19T02:06:19.780Z,64.99
2023-04-19T02:07:19.767Z,64.99
2023-04-19T02:08:19.746Z,64.99
2023-04-19T02:09:19.741Z,64.99
2023-04-19T02:10:19.761Z,65.09
2023-04-19T02:11:19.726Z,65.09
2023-04-19T02:12:19.711Z,65.09
2023-04-19T02:13:19.701Z,65.29
2023-04-19T02:14:19.686Z,65.42
2023-04-19T02:15:19.671Z,65.42
2023-04-19T02:16:19.676Z,65.42
2023-04-19T02:17:19.681Z,65.42
2023-04-19T02:18:19.637Z,65.42
2023-04-19T02:19:19.628Z,65.63
2023-04-19T02:20:19.616Z,65.63
2023-04-19T02:21:19.609Z,65.63
2023-04-19T02:22:19.588Z,65.84
2023-04-19T02:23:19.618Z,65.94
2023-04-19T02:24:19.616Z,66.18
2023-04-19T02:25:19.569Z,66.38
2023-04-19T02:26:19.569Z,66.59
2023-04-19T02:27:19.557Z,66.80
2023-04-19T02:28:19.526Z,67.00
2023-04-19T02:29:19.509Z,67.10
2023-04-19T02:30:19.502Z,67.24
2023-04-19T02:31:19.527Z,67.34
2023-04-19T02:32:19.490Z,67.55
2023-04-19T02:33:19.475Z,67.76
2023-04-19T02:34:19.457Z,67.76
2023-04-19T02:35:19.476Z,67.86
2023-04-19T02:36:19.445Z,68.17
2023-04-19T02:37:19.512Z,68.20
2023-04-19T02:38:19.415Z,68.30
2023-04-19T02:39:19.399Z,68.30
2023-04-19T02:40:19.396Z,68.40
2023-04-19T02:41:19.378Z,68.54
2023-04-19T02:42:19.398Z,68.64
2023-04-19T02:43:19.363Z,68.85
2023-04-19T02:44:19.344Z,69.06
2023-04-19T02:45:19.336Z,69.47
2023-04-19T02:46:19.334Z,69.37
2023-04-19T02:47:19.445Z,69.47
2023-04-19T02:48:19.309Z,69.47
2023-04-19T02:49:19.303Z,69.58
2023-04-19T02:50:19.278Z,69.37
2023-04-19T02:51:19.274Z,69.03
2023-04-19T02:52:19.264Z,68.92
2023-04-19T02:53:19.256Z,68.92
2023-04-19T02:54:19.239Z,68.92
2023-04-19T02:55:19.231Z,69.16
2023-04-19T02:56:19.217Z,69.37
2023-04-19T02:57:19.199Z,69.47
2023-04-19T02:58:19.208Z,69.58
2023-04-19T02:59:19.178Z,69.67
2023-04-19T03:00:19.183Z,69.78
2023-04-19T03:01:19.219Z,69.78
2023-04-19T03:02:19.167Z,70.09
2023-04-19T03:03:19.146Z,70.43
2023-04-19T03:04:19.142Z,70.74
2023-04-19T03:05:19.123Z,70.95
2023-04-19T03:06:19.108Z,70.95
2023-04-19T03:07:19.087Z,70.84
2023-04-19T03:08:19.080Z,70.74
2023-04-19T03:09:19.077Z,70.74
2023-04-19T03:10:19.065Z,71.05
2023-04-19T03:11:19.044Z,71.26
2023-04-19T03:12:19.030Z,71.39
2023-04-19T03:13:19.024Z,71.50
2023-04-19T03:14:19.054Z,71.60
2023-04-19T03:15:19.004Z,71.81
2023-04-19T03:16:19.056Z,71.71
2023-04-19T03:17:19.043Z,71.71
2023-04-19T03:18:18.968Z,71.67
2023-04-19T03:19:18.955Z,71.67
2023-04-19T03:20:18.949Z,71.67
2023-04-19T03:21:18.936Z,71.77
2023-04-19T03:22:18.913Z,71.77
2023-04-19T03:23:18.921Z,71.67
2023-04-19T03:24:18.899Z,71.77
2023-04-19T03:25:18.886Z,72.01
2023-04-19T03:26:18.877Z,71.98
2023-04-19T03:27:18.914Z,72.19
2023-04-19T03:28:18.852Z,72.19
2023-04-19T03:29:18.837Z,72.08
2023-04-19T03:30:18.918Z,72.08
2023-04-19T03:31:18.838Z,72.32
2023-04-19T03:32:18.805Z,72.39
2023-04-19T03:33:18.786Z,72.53
2023-04-19T03:34:18.775Z,72.63
2023-04-19T03:35:18.772Z,72.63
2023-04-19T03:36:18.758Z,72.74
2023-04-19T03:37:18.743Z,72.84
2023-04-19T03:38:18.737Z,72.94
2023-04-19T03:39:18.717Z,72.94
2023-04-19T03:40:18.717Z,72.94
2023-04-19T03:41:18.705Z,73.05
2023-04-19T03:42:18.696Z,73.15
2023-04-19T03:43:18.682Z,73.15
2023-04-19T03:44:18.883Z,73.15
2023-04-19T03:45:18.651Z,73.12
2023-04-19T03:46:18.797Z,73.12
2023-04-19T03:47:18.687Z,73.12
2023-04-19T03:48:18.617Z,73.12
2023-04-19T03:49:18.612Z,73.15
2023-04-19T03:50:18.599Z,73.26
2023-04-19T03:51:18.583Z,73.36
2023-04-19T03:52:18.577Z,73.46
2023-04-19T03:53:18.574Z,73.56
2023-04-19T03:54:20.548Z,73.56
2023-04-19T03:55:20.551Z,73.77
2023-04-19T03:56:18.537Z,73.98
2023-04-19T03:57:18.524Z,74.18
2023-04-19T03:58:18.522Z,74.29
2023-04-19T03:59:18.497Z,74.39
2023-04-19T04:00:18.489Z,74.49
2023-04-19T04:01:18.486Z,74.60
2023-04-19T04:02:20.684Z,74.70
2023-04-19T04:03:18.738Z,74.81
2023-04-19T04:04:18.862Z,75.04
2023-04-19T04:05:18.500Z,75.25
2023-04-19T04:06:18.464Z,75.46
2023-04-19T04:07:18.412Z,75.56
2023-04-19T04:08:18.392Z,75.67
2023-04-19T04:09:18.408Z,75.77
2023-04-19T04:10:18.379Z,75.87
2023-04-19T04:11:18.381Z,75.87
2023-04-19T04:12:18.355Z,75.87
2023-04-19T04:13:18.356Z,75.94
2023-04-19T04:14:18.341Z,76.04
2023-04-19T04:15:18.319Z,76.04
2023-04-19T04:16:18.357Z,76.15
2023-04-19T04:17:18.326Z,76.15
2023-04-19T04:18:18.445Z,76.15
2023-04-19T04:19:18.278Z,76.15
2023-04-19T04:20:18.254Z,76.15
2023-04-19T04:21:18.254Z,76.15
2023-04-19T04:22:18.242Z,76.25
2023-04-19T04:23:18.234Z,76.15
2023-04-19T04:24:18.218Z,76.25
2023-04-19T04:25:18.693Z,76.25
2023-04-19T04:26:18.196Z,76.32
2023-04-19T04:27:18.232Z,76.32
2023-04-19T04:28:18.172Z,76.22
2023-04-19T04:29:18.169Z,75.97
2023-04-19T04:30:18.172Z,75.67
2023-04-19T04:31:18.413Z,75.11
2023-04-19T04:32:18.216Z,74.90
2023-04-19T04:33:18.135Z,74.77
2023-04-19T04:34:18.268Z,74.46
2023-04-19T04:35:18.116Z,73.91
2023-04-19T04:36:18.099Z,73.50
2023-04-19T04:37:18.094Z,73.40
2023-04-19T04:38:24.773Z,73.05
2023-04-19T04:39:18.065Z,72.74
2023-04-19T04:40:18.062Z,72.74
2023-04-19T04:41:18.073Z,72.64
2023-04-19T04:42:18.039Z,72.43
2023-04-19T04:43:18.025Z,72.74
2023-04-19T04:44:18.029Z,72.74
2023-04-19T04:45:18.003Z,72.50
2023-04-19T04:46:18.065Z,72.30
2023-04-19T04:47:17.984Z,71.96
2023-04-19T04:48:17.968Z,71.75
2023-04-19T04:49:17.972Z,71.64
2023-04-19T04:50:17.975Z,71.64
2023-04-19T04:51:17.941Z,71.41
2023-04-19T04:52:17.947Z,71.09
2023-04-19T04:53:17.923Z,71.20
2023-04-19T04:54:17.965Z,71.30
2023-04-19T04:55:17.902Z,71.06
2023-04-19T04:56:17.903Z,70.66
2023-04-19T04:57:17.884Z,70.31
2023-04-19T04:58:20.366Z,70.21
2023-04-19T04:59:17.861Z,69.87
2023-04-19T05:00:17.863Z,69.36
2023-04-19T05:01:17.886Z,68.91
2023-04-19T05:02:17.908Z,68.67
2023-04-19T05:03:17.916Z,68.16
2023-04-19T05:04:18.127Z,67.82
2023-04-19T05:05:17.789Z,67.48
2023-04-19T05:06:17.817Z,67.07
2023-04-19T05:07:17.773Z,66.43
2023-04-19T05:08:17.764Z,65.78
2023-04-19T05:09:17.741Z,65.27
2023-04-19T05:10:17.728Z,65.91
2023-04-19T05:11:17.725Z,65.58
2023-04-19T05:12:17.722Z,65.34
2023-04-19T05:13:17.706Z,64.80
2023-04-19T05:14:17.813Z,64.16
2023-04-19T05:15:17.685Z,63.51
2023-04-19T05:16:17.744Z,63.07
2023-04-19T05:17:17.665Z,62.53
2023-04-19T05:18:17.660Z,61.79
2023-04-19T05:19:17.632Z,61.15
2023-04-19T05:20:17.622Z,60.74
2023-04-19T05:21:17.609Z,60.87
2023-04-19T05:22:17.639Z,61.17
2023-04-19T05:23:17.593Z,61.27
2023-04-19T05:24:17.843Z,61.04
2023-04-19T05:25:17.563Z,60.74
2023-04-19T05:26:17.559Z,60.40
2023-04-19T05:27:17.533Z,60.10
2023-04-19T05:28:17.528Z,60.10
2023-04-19T05:29:17.518Z,60.43
2023-04-19T05:30:17.505Z,60.30
2023-04-19T05:31:17.516Z,60.07
2023-04-19T05:32:17.526Z,59.46
2023-04-19T05:33:17.464Z,59.12
2023-04-19T05:34:19.609Z,58.99
2023-04-19T05:35:17.443Z,58.69
2023-04-19T05:36:17.438Z,58.56
2023-04-19T05:37:17.436Z,58.02
2023-04-19T05:38:17.444Z,57.41
2023-04-19T05:39:17.415Z,57.31
2023-04-19T05:40:17.398Z,57.28
2023-04-19T05:41:17.390Z,56.75
2023-04-19T05:42:17.379Z,56.42
2023-04-19T05:43:17.363Z,55.81
2023-04-19T05:44:17.613Z,55.90
2023-04-19T05:45:17.354Z,55.50
2023-04-19T05:46:17.384Z,55.40
2023-04-19T05:47:17.317Z,55.81
2023-04-19T05:48:17.331Z,55.57
2023-04-19T05:49:17.312Z,55.24
2023-04-19T05:50:17.313Z,54.71
2023-04-19T05:51:17.265Z,54.41
2023-04-19T05:52:17.261Z,54.30
2023-04-19T05:53:17.256Z,53.97
2023-04-19T05:54:17.432Z,53.97
2023-04-19T05:55:17.226Z,53.57
2023-04-19T05:56:17.210Z,53.75
2023-04-19T05:57:17.192Z,53.32
2023-04-19T05:58:17.190Z,52.91
2023-04-19T05:59:17.177Z,52.58
2023-04-19T06:00:17.170Z,52.45
2023-04-19T06:01:17.149Z,52.05
2023-04-19T06:02:17.278Z,51.72
2023-04-19T06:03:17.301Z,51.39
2023-04-19T06:04:17.442Z,51.39
2023-04-19T06:05:17.201Z,50.79
2023-04-19T06:06:17.239Z,51.09
2023-04-19T06:07:30.737Z,51.09
2023-04-19T06:08:17.078Z,50.81
2023-04-19T06:09:17.114Z,51.95
2023-04-19T06:10:17.084Z,51.62
2023-04-19T06:11:24.914Z,50.91
2023-04-19T06:12:17.031Z,51.62
2023-04-19T06:13:17.011Z,50.79
2023-04-19T06:14:17.395Z,50.66
2023-04-19T06:15:17.002Z,49.73
2023-04-19T06:16:17.025Z,49.93
2023-04-19T06:17:17.052Z,49.91
2023-04-19T06:18:19.604Z,49.70
2023-04-19T06:19:16.967Z,48.87
2023-04-19T06:20:16.934Z,48.67
2023-04-19T06:21:16.926Z,48.77
2023-04-19T06:22:16.912Z,48.67
2023-04-19T06:23:16.904Z,48.77
2023-04-19T06:24:17.038Z,48.95
2023-04-19T06:25:16.879Z,48.43
2023-04-19T06:26:16.917Z,47.90
2023-04-19T06:27:16.859Z,47.90
2023-04-19T06:28:16.876Z,47.47
2023-04-19T06:29:16.837Z,46.74
2023-04-19T06:30:16.836Z,46.62
2023-04-19T06:31:16.882Z,46.42
2023-04-19T06:32:16.844Z,46.42
2023-04-19T06:33:16.803Z,46.12
2023-04-19T06:34:17.138Z,45.92
2023-04-19T06:35:16.775Z,46.62
2023-04-19T06:36:16.750Z,45.92
2023-04-19T06:37:16.746Z,46.19
2023-04-19T06:38:16.757Z,45.79
2023-04-19T06:39:16.996Z,45.41
2023-04-19T06:40:16.715Z,45.89
2023-04-19T06:41:16.694Z,44.79
2023-04-19T06:42:16.712Z,45.52
2023-04-19T06:43:16.727Z,45.79
2023-04-19T06:44:17.024Z,45.19
2023-04-19T06:45:16.674Z,45.14
2023-04-19T06:46:16.672Z,44.89
2023-04-19T06:47:16.631Z,45.07
2023-04-19T06:48:16.627Z,44.87
2023-04-19T06:49:16.615Z,44.56
2023-04-19T06:50:16.598Z,45.05
2023-04-19T06:51:16.597Z,45.58
2023-04-19T06:52:16.574Z,44.04
2023-04-19T06:53:16.573Z,42.61
2023-04-19T06:54:16.813Z,42.49
2023-04-19T06:55:16.548Z,41.05
2023-04-19T06:56:16.534Z,41.53
2023-04-19T06:57:16.528Z,43.06
2023-04-19T06:58:16.542Z,42.91
2023-04-19T06:59:16.533Z,41.47
2023-04-19T07:00:16.484Z,40.97
2023-04-19T07:01:16.489Z,40.64
2023-04-19T07:02:16.601Z,40.42
2023-04-19T07:03:16.532Z,39.63
2023-04-19T07:04:17.027Z,40.25
2023-04-19T07:05:16.427Z,40.05
2023-04-19T07:06:16.425Z,40.14
2023-04-19T07:07:16.411Z,40.03
2023-04-19T07:08:16.398Z,40.11
2023-04-19T07:09:16.500Z,39.49
2023-04-19T07:10:16.367Z,39.17
2023-04-19T07:11:16.363Z,38.97
2023-04-19T07:12:16.352Z,38.65
2023-04-19T07:13:16.332Z,38.64
2023-04-19T07:14:16.603Z,37.92
2023-04-19T07:15:16.317Z,37.40
2023-04-19T07:16:16.658Z,37.30
2023-04-19T07:17:16.298Z,37.00
2023-04-19T07:18:16.287Z,37.30
2023-04-19T07:19:16.278Z,37.20
2023-04-19T07:20:16.264Z,37.02
2023-04-19T07:21:16.248Z,37.52
2023-04-19T07:22:16.248Z,36.92
2023-04-19T07:23:16.220Z,37.02
2023-04-19T07:24:16.473Z,36.92
2023-04-19T07:25:16.205Z,37.62
2023-04-19T07:26:16.186Z,37.82
2023-04-19T07:27:16.181Z,36.44
2023-04-19T07:28:16.170Z,37.15
2023-04-19T07:29:16.163Z,36.95
2023-04-19T07:30:16.270Z,37.87
2023-04-19T07:31:16.144Z,37.65
2023-04-19T07:32:16.133Z,36.93
2023-04-19T07:33:16.214Z,36.50
2023-04-19T07:34:16.236Z,35.39
2023-04-19T07:35:16.085Z,35.87
2023-04-19T07:36:16.073Z,35.57
2023-04-19T07:37:16.061Z,35.05
2023-04-19T07:38:16.059Z,34.75
2023-04-19T07:39:16.051Z,35.21
2023-04-19T07:40:16.034Z,35.11
2023-04-19T07:41:16.032Z,35.58
2023-04-19T07:42:16.012Z,35.07
2023-04-19T07:43:16.002Z,34.57
2023-04-19T07:44:16.241Z,35.09
2023-04-19T07:45:15.971Z,35.39
2023-04-19T07:46:16.140Z,35.11
2023-04-19T07:47:15.967Z,35.21
2023-04-19T07:48:15.944Z,34.97
2023-04-19T07:49:15.927Z,34.44
2023-04-19T07:50:15.917Z,33.55
2023-04-19T07:51:15.905Z,33.63
2023-04-19T07:52:15.897Z,33.23
2023-04-19T07:53:15.895Z,32.73
2023-04-19T07:54:16.041Z,32.55
2023-04-19T07:55:15.877Z,33.78
2023-04-19T07:56:15.853Z,33.67
2023-04-19T07:57:15.843Z,34.16
2023-04-19T07:58:15.834Z,33.96
2023-04-19T07:59:15.815Z,34.44
2023-04-19T08:00:15.841Z,33.85
2023-04-19T08:01:15.800Z,33.43
2023-04-19T08:02:16.121Z,32.95
2023-04-19T08:03:15.963Z,33.91
2023-04-19T08:04:16.067Z,34.41
2023-04-19T08:05:15.923Z,34.39
2023-04-19T08:06:15.753Z,34.26
2023-04-19T08:07:15.735Z,33.94
2023-04-19T08:08:15.715Z,33.63
2023-04-19T08:09:15.738Z,32.93
2023-04-19T08:10:15.699Z,33.53
2023-04-19T08:11:15.686Z,32.72
2023-04-19T08:12:30.332Z,33.22
2023-04-19T08:13:15.659Z,33.30
2023-04-19T08:14:30.557Z,32.89
2023-04-19T08:16:51.785Z,32.35
2023-04-19T08:17:23.302Z,32.65
2023-04-19T08:18:15.748Z,32.75
2023-04-19T08:19:15.592Z,32.53
2023-04-19T08:20:15.583Z,32.97
2023-04-19T08:21:15.583Z,33.34
2023-04-19T08:22:15.574Z,33.10
2023-04-19T08:23:24.032Z,31.78
2023-04-19T08:24:15.787Z,31.05
2023-04-19T08:25:15.538Z,30.85
2023-04-19T08:26:15.518Z,30.94
2023-04-19T08:27:15.518Z,31.28
2023-04-19T08:28:15.508Z,31.87
2023-04-19T08:29:15.790Z,32.09
2023-04-19T08:30:15.486Z,31.87
2023-04-19T08:31:15.466Z,32.17
2023-04-19T08:32:15.616Z,31.78
2023-04-19T08:33:15.544Z,31.79
2023-04-19T08:34:15.465Z,31.98
2023-04-19T08:35:15.420Z,31.26
2023-04-19T08:36:22.046Z,30.96
2023-04-19T08:37:15.402Z,31.43
2023-04-19T08:38:15.405Z,31.23
2023-04-19T08:39:29.123Z,31.05
2023-04-19T08:40:15.376Z,30.84
2023-04-19T08:41:15.371Z,30.52
2023-04-19T08:43:15.335Z,30.84
2023-04-19T08:44:17.750Z,30.51
2023-04-19T08:46:15.328Z,30.31
2023-04-19T08:47:27.227Z,29.80
2023-04-19T08:48:15.309Z,29.70
2023-04-19T08:49:15.585Z,29.69
2023-04-19T08:50:28.302Z,29.91
2023-04-19T08:51:15.252Z,30.54
2023-04-19T08:52:15.238Z,30.46
2023-04-19T08:53:24.858Z,30.64
2023-04-19T08:54:15.218Z,30.85
2023-04-19T08:55:15.198Z,30.64
2023-04-19T08:56:27.729Z,30.34
2023-04-19T08:57:15.193Z,31.05
2023-04-19T08:58:28.537Z,30.64
2023-04-19T08:59:18.366Z,30.65
2023-04-19T09:00:15.143Z,31.17
2023-04-19T09:01:30.361Z,31.48
2023-04-19T09:02:15.243Z,32.01
2023-04-19T09:03:15.327Z,32.04
2023-04-19T09:04:33.898Z,32.58
2023-04-19T09:05:15.369Z,33.09
2023-04-19T09:06:15.320Z,33.53
2023-04-19T09:07:15.083Z,34.32
2023-04-19T09:08:15.080Z,34.16
2023-04-19T09:09:28.891Z,34.42
2023-04-19T09:10:15.040Z,33.79
2023-04-19T09:11:15.023Z,33.55
2023-04-19T09:12:15.011Z,31.90
2023-04-19T09:13:15.005Z,31.57
2023-04-19T09:14:14.986Z,31.35
2023-04-19T09:15:14.978Z,30.65
2023-04-19T09:16:15.064Z,31.03
2023-04-19T09:17:14.954Z,32.32
2023-04-19T09:18:14.953Z,32.11
2023-04-19T09:20:14.942Z,30.87
2023-04-19T09:21:14.923Z,30.52
2023-04-19T09:22:15.094Z,29.60
2023-04-19T09:23:14.894Z,29.10
2023-04-19T09:24:14.882Z,28.71
2023-04-19T09:25:39.169Z,29.83
2023-04-19T09:26:21.984Z,29.32
2023-04-19T09:27:14.854Z,30.02
2023-04-19T09:28:14.838Z,30.04
2023-04-19T09:29:15.251Z,30.16
2023-04-19T09:30:24.212Z,29.96
2023-04-19T09:31:33.148Z,30.37
2023-04-19T09:32:14.800Z,30.10
2023-04-19T09:33:14.932Z,31.12
2023-04-19T09:34:14.778Z,31.57
2023-04-19T09:35:14.774Z,32.71
2023-04-19T09:36:14.799Z,33.04
2023-04-19T09:37:29.491Z,34.06
2023-04-19T09:38:14.752Z,33.56
2023-04-19T09:39:15.559Z,33.59
2023-04-19T09:40:14.712Z,34.41
2023-04-19T09:41:14.695Z,34.87
2023-04-19T09:42:18.101Z,33.92
2023-04-19T09:43:45.258Z,33.26
2023-04-19T09:45:29.180Z,31.20
2023-04-19T09:46:14.688Z,31.28
2023-04-19T09:47:14.634Z,30.46
2023-04-19T09:48:14.611Z,30.44
2023-04-19T09:49:22.994Z,30.33
2023-04-19T09:50:23.984Z,29.11
2023-04-19T09:51:15.069Z,29.19
2023-04-19T09:52:14.641Z,28.88
2023-04-19T09:53:14.562Z,29.00
2023-04-19T09:54:14.654Z,29.42
2023-04-19T09:55:26.168Z,29.87
2023-04-19T09:56:14.534Z,31.31
2023-04-19T09:57:14.522Z,31.24
2023-04-19T09:58:14.514Z,32.08
2023-04-19T09:59:20.812Z,32.40
2023-04-19T10:00:14.487Z,32.37
2023-04-19T10:01:16.156Z,32.04
2023-04-19T10:02:14.533Z,31.41
2023-04-19T10:03:14.512Z,31.38
2023-04-19T10:04:24.057Z,30.75
2023-04-19T10:05:20.503Z,30.15
2023-04-19T10:06:31.787Z,29.33
2023-04-19T10:08:14.422Z,28.81
2023-04-19T10:09:14.808Z,28.70
2023-04-19T10:10:20.392Z,28.49
2023-04-19T10:11:14.362Z,28.28
2023-04-19T10:12:38.568Z,27.77
2023-04-19T10:13:19.951Z,27.27
2023-04-19T10:14:14.333Z,28.17
2023-04-19T10:15:14.329Z,27.88
2023-04-19T10:16:19.729Z,28.08
2023-04-19T10:17:14.454Z,28.28
2023-04-19T10:18:14.296Z,28.28
2023-04-19T10:19:14.427Z,28.16
2023-04-19T10:20:14.275Z,27.96
2023-04-19T10:21:14.261Z,27.84
2023-04-19T10:22:14.275Z,27.74
2023-04-19T10:23:14.238Z,27.74
2023-04-19T10:24:14.228Z,27.94
2023-04-19T10:25:14.221Z,27.92
2023-04-19T10:26:14.223Z,28.12
2023-04-19T10:27:14.198Z,27.72
2023-04-19T10:28:14.190Z,27.81
2023-04-19T10:29:14.455Z,28.36
2023-04-19T10:30:14.160Z,29.19
2023-04-19T10:31:14.220Z,30.02
2023-04-19T10:32:14.191Z,30.04
2023-04-19T10:33:14.134Z,30.47
2023-04-19T10:34:14.124Z,30.67
2023-04-19T10:35:14.676Z,30.75
2023-04-19T10:36:14.099Z,30.43
2023-04-19T10:37:14.104Z,30.41
2023-04-19T10:38:14.086Z,29.79
2023-04-19T10:39:14.259Z,29.08
2023-04-19T10:40:14.087Z,29.07
2023-04-19T10:41:16.902Z,28.46
2023-04-19T10:42:14.270Z,28.55
2023-04-19T10:43:14.020Z,28.24
2023-04-19T10:44:14.010Z,27.84
2023-04-19T10:45:14.006Z,27.57
2023-04-19T10:46:14.023Z,29.00
2023-04-19T10:47:14.735Z,29.11
2023-04-19T10:48:13.967Z,29.01
2023-04-19T10:49:14.081Z,30.23
2023-04-19T10:50:14.050Z,29.72
2023-04-19T10:51:13.931Z,29.31
2023-04-19T10:52:13.920Z,29.19
2023-04-19T10:53:14.309Z,28.79
2023-04-19T10:54:13.905Z,28.17
2023-04-19T10:55:13.887Z,28.57
2023-04-19T10:56:13.878Z,28.26
2023-04-19T10:57:13.880Z,28.17
2023-04-19T10:58:13.902Z,28.16
2023-04-19T10:59:13.925Z,28.07
2023-04-19T11:00:13.831Z,28.29
2023-04-19T11:01:13.855Z,28.98
2023-04-19T11:02:13.901Z,28.58
2023-04-19T11:03:13.937Z,28.49
2023-04-19T11:04:13.935Z,28.91
2023-04-19T11:05:13.787Z,29.21
2023-04-19T11:06:13.778Z,29.32
2023-04-19T11:07:13.764Z,29.41
2023-04-19T11:08:13.748Z,29.31
2023-04-19T11:09:13.914Z,29.21
2023-04-19T11:10:13.795Z,29.72
2023-04-19T11:11:13.718Z,29.52
2023-04-19T11:12:13.755Z,29.63
2023-04-19T11:13:13.687Z,29.83
2023-04-19T11:14:13.759Z,29.63
2023-04-19T11:15:13.665Z,29.83
2023-04-19T11:16:13.687Z,29.93
2023-04-19T11:17:13.671Z,29.73
2023-04-19T11:18:13.698Z,29.73
2023-04-19T11:19:13.824Z,30.03
2023-04-19T11:20:13.619Z,30.23
2023-04-19T11:21:13.599Z,30.64
2023-04-19T11:22:13.604Z,30.13
2023-04-19T11:23:13.587Z,29.62
2023-04-19T11:24:13.569Z,29.82
2023-04-19T11:25:13.565Z,29.83
2023-04-19T11:26:13.581Z,29.93
2023-04-19T11:27:13.551Z,30.04
2023-04-19T11:28:13.530Z,30.16
2023-04-19T11:29:13.773Z,30.35
2023-04-19T11:30:13.566Z,30.67
2023-04-19T11:31:13.554Z,31.10
2023-04-19T11:32:13.494Z,31.01
2023-04-19T11:33:13.479Z,30.91
2023-04-19T11:34:13.685Z,31.03
2023-04-19T11:35:13.459Z,31.24
2023-04-19T11:36:13.455Z,31.75
2023-04-19T11:37:13.444Z,32.07
2023-04-19T11:38:13.420Z,32.07
2023-04-19T11:39:13.416Z,31.97
2023-04-19T11:40:13.408Z,32.05
2023-04-19T11:41:13.387Z,31.72
2023-04-19T11:42:13.372Z,31.18
2023-04-19T11:43:13.385Z,30.67
2023-04-19T11:44:13.445Z,30.37
2023-04-19T11:45:26.099Z,30.38
2023-04-19T11:46:13.458Z,30.81
2023-04-19T11:47:13.337Z,31.54
2023-04-19T11:48:13.378Z,31.97
2023-04-19T11:49:13.322Z,32.71
2023-04-19T11:50:13.285Z,33.66
2023-04-19T11:51:13.277Z,34.38
2023-04-19T11:52:13.268Z,34.19
2023-04-19T11:53:13.269Z,33.99
2023-04-19T11:54:13.270Z,34.19
2023-04-19T11:55:13.262Z,33.61
2023-04-19T11:56:13.221Z,34.12
2023-04-19T11:57:13.240Z,34.72
2023-04-19T11:58:13.197Z,34.54
2023-04-19T11:59:13.184Z,35.16
2023-04-19T12:00:13.178Z,35.26
2023-04-19T12:01:13.185Z,35.57
2023-04-19T12:02:13.353Z,35.37
2023-04-19T12:03:13.280Z,35.69
2023-04-19T12:04:13.274Z,35.89
2023-04-19T12:05:13.320Z,36.39
2023-04-19T12:06:13.115Z,36.59
2023-04-19T12:07:13.099Z,36.81
2023-04-19T12:08:13.088Z,37.11
2023-04-19T12:09:13.076Z,37.13
2023-04-19T12:10:13.093Z,37.85
2023-04-19T12:11:13.069Z,36.53
2023-04-19T12:12:13.049Z,36.51
2023-04-19T12:13:13.067Z,36.81
2023-04-19T12:14:13.028Z,35.99
2023-04-19T12:15:13.022Z,35.88
2023-04-19T12:16:13.034Z,35.26
2023-04-19T12:17:12.995Z,34.74
2023-04-19T12:18:13.078Z,35.57
2023-04-19T12:19:13.014Z,35.79
2023-04-19T12:20:12.964Z,36.23
2023-04-19T12:21:12.958Z,37.03
2023-04-19T12:22:12.943Z,36.63
2023-04-19T12:23:12.927Z,36.45
2023-04-19T12:24:12.921Z,37.35
2023-04-19T12:25:12.913Z,37.45
2023-04-19T12:26:12.898Z,36.63
2023-04-19T12:27:12.881Z,36.85
2023-04-19T12:28:12.873Z,37.65
2023-04-19T12:29:12.935Z,37.75
2023-04-19T12:30:12.910Z,37.63
2023-04-19T12:31:12.842Z,37.42
2023-04-19T12:32:12.859Z,37.51
2023-04-19T12:33:12.866Z,37.29
2023-04-19T12:34:12.854Z,37.11
2023-04-19T12:35:12.793Z,37.33
2023-04-19T12:36:12.779Z,37.25
2023-04-19T12:37:12.769Z,38.15
2023-04-19T12:38:12.761Z,37.83
2023-04-19T12:39:12.754Z,37.33
2023-04-19T12:40:12.748Z,37.33
2023-04-19T12:41:12.735Z,36.92
2023-04-19T12:42:12.712Z,36.81
2023-04-19T12:43:12.714Z,36.73
2023-04-19T12:44:12.697Z,36.83
2023-04-19T12:45:12.684Z,37.13
2023-04-19T12:46:12.695Z,37.63
2023-04-19T12:47:12.661Z,37.63
2023-04-19T12:48:12.643Z,37.81
2023-04-19T12:49:12.636Z,37.62
2023-04-19T12:50:12.726Z,37.09
2023-04-19T12:51:12.613Z,36.88
2023-04-19T12:52:12.605Z,36.98
2023-04-19T12:53:12.598Z,37.08
2023-04-19T12:54:12.584Z,37.28
2023-04-19T12:55:12.575Z,36.77
2023-04-19T12:56:12.563Z,36.19
2023-04-19T12:57:12.550Z,36.53
2023-04-19T12:58:12.536Z,37.01